Time;durP1;ratioP1;P1;durP2;ratioP2;P2;SDS_P1;SDS_P2;PMS_P1;PMS_P2;Temp;Humidity;BMP_temperature;BMP_pressure;BME280_temperature;BME280_humidity;BME280_pressure;Samples;Min_cycle;Max_cycle;Signal;HPM_P1;HPM_P2
2022/01/05 00:01:51;;;;;;;14.75;4.15;;;;;;;5.90;61.12;100081.88;5182955;28;20453;-41
2022/01/05 00:04:23;;;;;;;17.17;4.47;;;;;;;5.91;61.06;100080.09;5188602;28;20416;-41
2022/01/05 00:06:56;;;;;;;15.02;5.00;;;;;;;5.93;61.07;100081.63;5187732;28;20420;-42
2022/01/05 00:09:28;;;;;;;14.27;5.45;;;;;;;5.94;61.03;100074.59;5194962;28;20441;-41
2022/01/05 00:12:01;;;;;;;17.60;5.07;;;;;;;5.94;60.98;100064.94;5190570;28;20771;-45
2022/01/05 00:14:34;;;;;;;16.40;4.35;;;;;;;5.92;61.04;100064.25;5188788;28;20830;-42
2022/01/05 00:17:07;;;;;;;20.63;5.75;;;;;;;5.91;61.07;100067.00;5195608;28;20426;-42
2022/01/05 00:19:39;;;;;;;17.90;4.23;;;;;;;5.83;60.97;100049.34;5194620;28;20474;-41
2022/01/05 00:22:13;;;;;;;12.30;4.30;;;;;;;5.80;60.97;100049.63;5191511;28;20413;-42
2022/01/05 00:24:46;;;;;;;18.27;5.63;;;;;;;5.87;60.94;100060.38;5183022;28;20530;-42
2022/01/05 00:27:18;;;;;;;19.17;6.00;;;;;;;5.88;61.05;100068.09;5184795;28;20410;-42
2022/01/05 00:29:52;;;;;;;16.75;5.55;;;;;;;5.87;61.06;100070.84;5194292;28;20407;-40
2022/01/05 00:32:25;;;;;;;25.40;5.80;;;;;;;5.86;60.95;100070.03;5194356;28;20919;-43
2022/01/05 00:34:57;;;;;;;26.95;5.32;;;;;;;5.87;60.96;100073.47;5188837;28;20517;-41
2022/01/05 00:37:29;;;;;;;18.88;5.63;;;;;;;5.86;60.81;100069.22;5190121;28;20396;-43
2022/01/05 00:40:02;;;;;;;19.58;6.30;;;;;;;5.76;61.04;100074.44;5180729;28;20892;-41
2022/01/05 00:42:34;;;;;;;11.80;5.35;;;;;;;5.86;60.98;100075.28;5181607;28;20416;-42
2022/01/05 00:45:09;;;;;;;11.98;4.82;;;;;;;5.83;60.86;100075.56;5186966;28;20905;-41
2022/01/05 00:47:41;;;;;;;18.85;4.90;;;;;;;5.84;60.86;100069.34;5175677;28;20494;-41
2022/01/05 00:50:14;;;;;;;12.57;4.68;;;;;;;5.83;60.84;100064.25;5198379;28;20417;-43
2022/01/05 00:52:46;;;;;;;29.67;5.68;;;;;;;5.81;60.88;100072.22;5191175;28;20509;-42
2022/01/05 00:55:18;;;;;;;17.10;5.32;;;;;;;5.81;60.67;100064.38;5197522;28;20409;-42
2022/01/05 00:57:52;;;;;;;11.45;4.68;;;;;;;5.82;60.71;100068.63;5191459;28;20493;-41
2022/01/05 01:00:25;;;;;;;15.10;5.05;;;;;;;5.72;60.75;100054.72;5192945;28;20427;-45
2022/01/05 01:02:58;;;;;;;20.77;4.45;;;;;;;5.78;60.75;100062.03;5181942;28;20423;-44
2022/01/05 01:05:30;;;;;;;16.10;4.75;;;;;;;5.78;60.83;100068.09;5191401;28;20487;-41
2022/01/05 01:08:03;;;;;;;17.63;5.10;;;;;;;5.77;60.61;100071.69;5178715;28;20622;-45
2022/01/05 01:10:35;;;;;;;20.45;4.85;;;;;;;5.80;60.69;100080.25;5179937;28;20413;-44
2022/01/05 01:13:07;;;;;;;14.65;4.97;;;;;;;5.80;60.75;100073.22;5182778;28;20500;-41
2022/01/05 01:15:41;;;;;;;18.23;5.30;;;;;;;5.81;60.69;100072.22;5183488;28;20438;-45
2022/01/05 01:18:13;;;;;;;18.92;5.70;;;;;;;5.86;60.53;100077.91;5190819;28;20429;-45
2022/01/05 01:20:47;;;;;;;25.25;5.43;;;;;;;5.89;60.50;100077.63;5187407;28;20425;-43
2022/01/05 01:23:22;;;;;;;30.25;5.80;;;;;;;5.91;60.56;100075.66;5189499;28;20440;-42
2022/01/05 01:25:54;;;;;;;17.77;5.40;;;;;;;5.95;60.60;100073.66;5194797;28;20421;-42
2022/01/05 01:28:26;;;;;;;14.95;4.63;;;;;;;5.96;60.57;100065.63;5187070;28;20431;-42
2022/01/05 01:31:00;;;;;;;26.83;6.22;;;;;;;5.99;60.48;100065.38;5184378;28;20419;-41
2022/01/05 01:33:32;;;;;;;24.38;6.00;;;;;;;5.99;60.52;100081.09;5178066;28;20778;-41
2022/01/05 01:36:05;;;;;;;21.55;6.53;;;;;;;6.02;60.63;100073.94;5185667;28;20502;-41
2022/01/05 01:38:38;;;;;;;17.50;5.83;;;;;;;6.06;60.65;100070.06;5182154;28;20925;-40
2022/01/05 01:41:11;;;;;;;23.30;6.70;;;;;;;6.00;60.38;100061.75;5187448;28;20494;-44
2022/01/05 01:43:44;;;;;;;22.02;6.18;;;;;;;6.04;60.33;100062.34;5182272;28;20433;-40
2022/01/05 01:46:18;;;;;;;21.50;5.95;;;;;;;6.12;60.30;100074.75;5187692;28;20419;-40
2022/01/05 01:48:51;;;;;;;26.15;7.40;;;;;;;6.14;60.27;100067.56;5194405;28;20426;-42
2022/01/05 01:51:23;;;;;;;26.80;6.32;;;;;;;6.18;60.22;100068.94;5190781;28;20427;-41
2022/01/05 01:53:55;;;;;;;18.30;5.13;;;;;;;6.14;60.22;100057.09;5184078;28;20426;-42
2022/01/05 01:56:32;;;;;;;22.60;5.68;;;;;;;6.23;60.42;100064.09;5186090;28;20420;-42
2022/01/05 01:59:05;;;;;;;21.10;7.03;;;;;;;6.25;60.29;100070.00;5197525;28;20453;-41
2022/01/05 02:01:40;;;;;;;24.83;6.30;;;;;;;6.25;60.50;100062.16;5188252;28;20417;-42
2022/01/05 02:04:12;;;;;;;19.53;5.27;;;;;;;6.24;60.25;100068.38;5190373;28;20429;-41
2022/01/05 02:06:44;;;;;;;17.98;6.18;;;;;;;6.21;60.33;100060.78;5192006;28;20417;-41
2022/01/05 02:09:17;;;;;;;16.20;5.60;;;;;;;6.20;60.22;100075.69;5178990;28;20759;-45
2022/01/05 02:11:49;;;;;;;19.08;5.97;;;;;;;6.18;60.25;100063.69;5186826;28;20423;-41
2022/01/05 02:14:21;;;;;;;23.60;6.22;;;;;;;6.19;60.36;100078.44;5187613;28;20450;-40
2022/01/05 02:16:56;;;;;;;28.67;6.60;;;;;;;6.18;60.36;100072.38;5185511;28;20545;-41
2022/01/05 02:19:28;;;;;;;35.47;6.50;;;;;;;6.17;60.29;100067.28;5195604;28;20449;-40
2022/01/05 02:22:02;;;;;;;20.35;5.88;;;;;;;6.16;60.39;100070.84;5189787;28;20443;-41
2022/01/05 02:24:34;;;;;;;22.25;7.43;;;;;;;6.15;60.48;100069.22;5182212;28;20421;-45
2022/01/05 02:27:08;;;;;;;18.80;6.07;;;;;;;6.15;60.40;100067.41;5181854;28;20438;-40
2022/01/05 02:29:40;;;;;;;17.40;6.20;;;;;;;6.14;60.30;100073.63;5182139;28;20412;-43
2022/01/05 02:32:13;;;;;;;21.63;6.20;;;;;;;6.04;60.40;100056.25;5194143;28;21009;-42
2022/01/05 02:34:46;;;;;;;18.42;5.90;;;;;;;6.11;60.31;100065.22;5192942;28;20498;-41
2022/01/05 02:37:20;;;;;;;17.75;5.32;;;;;;;6.09;60.28;100059.28;5186522;28;20425;-40
2022/01/05 02:39:52;;;;;;;19.70;6.47;;;;;;;6.12;60.24;100064.25;5197053;28;20421;-44
2022/01/05 02:42:28;;;;;;;26.65;6.95;;;;;;;6.16;60.34;100070.84;5188659;28;20426;-41
2022/01/05 02:45:00;;;;;;;21.08;5.22;;;;;;;6.17;60.22;100072.53;5195614;28;20484;-41
2022/01/05 02:47:33;;;;;;;19.88;5.13;;;;;;;6.18;60.38;100068.94;5191817;28;20418;-41
2022/01/05 02:50:07;;;;;;;25.05;5.38;;;;;;;6.17;60.38;100072.53;5190393;28;20433;-44
2022/01/05 02:52:42;;;;;;;24.00;6.05;;;;;;;6.22;60.16;100080.78;5181511;28;20446;-44
2022/01/05 02:55:15;;;;;;;20.00;5.35;;;;;;;6.27;60.38;100067.28;5185080;28;20424;-41
2022/01/05 02:57:47;;;;;;;17.35;5.15;;;;;;;6.31;60.52;100069.44;5191200;28;20505;-42
2022/01/05 03:00:20;;;;;;;28.40;6.25;;;;;;;6.37;60.28;100079.38;5184772;28;20936;-41
2022/01/05 03:02:52;;;;;;;21.42;5.75;;;;;;;6.42;60.48;100087.66;5183368;28;20448;-41
2022/01/05 03:05:24;;;;;;;17.13;5.35;;;;;;;6.45;60.33;100076.88;5189063;28;20836;-43
2022/01/05 03:07:58;;;;;;;22.65;6.03;;;;;;;6.48;60.41;100086.28;5199334;28;20530;-41
2022/01/05 03:10:30;;;;;;;20.67;4.80;;;;;;;6.50;60.34;100096.63;5197764;28;20405;-42
2022/01/05 03:13:03;;;;;;;21.65;5.43;;;;;;;6.56;60.52;100089.00;5197685;28;20977;-42
2022/01/05 03:15:36;;;;;;;23.80;6.32;;;;;;;6.54;60.31;100090.13;5189975;28;20457;-42
2022/01/05 03:18:09;;;;;;;23.00;5.05;;;;;;;6.61;60.41;100102.53;5188354;28;20434;-41
2022/01/05 03:20:41;;;;;;;24.40;6.47;;;;;;;6.63;60.40;100094.53;5185479;28;20418;-44
2022/01/05 03:23:15;;;;;;;14.90;4.85;;;;;;;6.64;60.43;100102.25;5194024;28;20409;-41
2022/01/05 03:25:48;;;;;;;23.38;6.53;;;;;;;6.63;60.42;100089.28;5203677;28;20421;-41
2022/01/05 03:28:20;;;;;;;17.13;6.20;;;;;;;6.62;60.40;100093.69;5187299;28;20510;-42
2022/01/05 03:30:52;;;;;;;22.02;4.57;;;;;;;6.60;60.34;100081.69;5192363;28;20419;-41
2022/01/05 03:33:25;;;;;;;25.88;7.40;;;;;;;6.59;60.45;100082.63;5184388;28;20501;-42
2022/01/05 03:35:57;;;;;;;20.13;6.03;;;;;;;6.59;60.42;100088.72;5179938;28;20410;-47
2022/01/05 03:38:31;;;;;;;17.58;5.28;;;;;;;6.61;60.53;100097.28;5184963;28;22969;-43
2022/01/05 03:41:03;;;;;;;21.17;6.15;;;;;;;6.59;60.60;100087.88;5185317;28;20425;-45
2022/01/05 03:43:36;;;;;;;20.35;6.30;;;;;;;6.66;60.69;100094.25;5188656;28;20419;-45
2022/01/05 03:46:08;;;;;;;22.20;5.45;;;;;;;6.69;60.46;100083.47;5186086;28;20423;-42
2022/01/05 03:48:41;;;;;;;15.95;4.35;;;;;;;6.69;60.60;100088.72;5191274;28;20427;-43
2022/01/05 03:51:13;;;;;;;14.57;5.32;;;;;;;6.70;60.65;100085.09;5182393;28;20407;-42
2022/01/05 03:53:47;;;;;;;17.65;5.13;;;;;;;6.72;60.55;100077.94;5186413;28;20423;-42
2022/01/05 03:56:19;;;;;;;23.00;6.00;;;;;;;6.74;60.72;100090.88;5192956;28;20403;-41
2022/01/05 03:58:51;;;;;;;23.20;5.55;;;;;;;6.74;60.64;100102.22;5200208;28;21430;-41
2022/01/05 04:01:24;;;;;;;17.65;4.53;;;;;;;6.72;60.65;100088.41;5195977;28;20427;-42
2022/01/05 04:03:56;;;;;;;19.55;6.50;;;;;;;6.68;60.82;100085.22;5190920;28;20445;-41
2022/01/05 04:06:28;;;;;;;24.90;6.72;;;;;;;6.60;60.79;100071.19;5184178;28;20435;-43
2022/01/05 04:09:02;;;;;;;24.92;5.95;;;;;;;6.61;60.82;100064.97;5185458;28;20429;-44
2022/01/05 04:11:34;;;;;;;17.00;5.35;;;;;;;6.72;60.73;100090.19;5186251;28;20479;-43
2022/01/05 04:14:08;;;;;;;33.80;6.53;;;;;;;6.74;60.82;100090.88;5184376;28;21097;-43
2022/01/05 04:16:40;;;;;;;21.92;5.88;;;;;;;6.75;60.75;100084.66;5182059;28;20517;-42
2022/01/05 04:19:12;;;;;;;21.23;5.93;;;;;;;6.74;60.79;100094.34;5193281;28;20513;-41
2022/01/05 04:21:45;;;;;;;22.45;6.43;;;;;;;6.78;60.85;100108.00;5182581;28;20415;-42
2022/01/05 04:24:19;;;;;;;24.75;5.20;;;;;;;6.64;60.89;100075.19;5186710;28;21014;-41
2022/01/05 04:26:51;;;;;;;25.58;5.55;;;;;;;6.81;60.78;100095.41;5189805;28;20433;-44
2022/01/05 04:29:23;;;;;;;17.92;5.32;;;;;;;6.84;60.83;100096.91;5181287;28;20423;-42
2022/01/05 04:31:56;;;;;;;18.43;5.67;;;;;;;6.86;60.94;100084.50;5188073;28;20428;-41
2022/01/05 04:34:28;;;;;;;29.75;6.85;;;;;;;6.88;60.93;100099.13;5186603;28;20437;-41
2022/01/05 04:37:00;;;;;;;19.25;5.85;;;;;;;6.90;60.75;100102.41;5185833;28;20410;-44
2022/01/05 04:39:35;;;;;;;22.83;6.00;;;;;;;6.90;60.82;100096.34;5190280;28;20744;-45
2022/01/05 04:42:08;;;;;;;23.75;7.18;;;;;;;6.90;60.88;100102.41;5184099;28;20427;-43
2022/01/05 04:44:40;;;;;;;28.87;7.43;;;;;;;6.91;60.97;100109.34;5193795;28;20492;-46
2022/01/05 04:47:13;;;;;;;22.45;6.82;;;;;;;6.91;60.79;100106.72;5188994;28;20434;-42
2022/01/05 04:49:45;;;;;;;31.88;6.55;;;;;;;6.93;60.95;100117.06;5206241;28;20489;-43
2022/01/05 04:52:18;;;;;;;38.20;8.63;;;;;;;6.93;60.81;100107.38;5195634;28;20876;-40
2022/01/05 04:54:51;;;;;;;25.27;6.65;;;;;;;6.95;60.88;100111.69;5181735;28;20419;-41
2022/01/05 04:57:24;;;;;;;28.48;7.28;;;;;;;6.97;60.85;100114.97;5185953;28;20423;-41
2022/01/05 04:59:56;;;;;;;22.92;5.88;;;;;;;7.00;60.84;100101.56;5189645;28;20752;-41
2022/01/05 05:02:28;;;;;;;25.63;6.70;;;;;;;7.01;60.74;100104.06;5192147;28;20432;-42
2022/01/05 05:05:01;;;;;;;21.27;5.90;;;;;;;7.02;60.83;100110.13;5190668;28;20417;-41
2022/01/05 05:07:33;;;;;;;22.20;5.28;;;;;;;7.01;60.79;100098.81;5190445;28;20889;-43
2022/01/05 05:10:08;;;;;;;18.60;5.45;;;;;;;7.02;60.84;100112.75;5188196;28;20509;-42
2022/01/05 05:12:40;;;;;;;22.75;5.18;;;;;;;6.97;61.08;100102.69;5181093;28;20488;-39
2022/01/05 05:15:12;;;;;;;29.27;5.95;;;;;;;7.07;60.84;100102.66;5192201;28;20924;-43
2022/01/05 05:17:45;;;;;;;22.48;6.03;;;;;;;7.04;61.12;100097.69;5178868;28;20462;-46
2022/01/05 05:20:17;;;;;;;20.63;5.30;;;;;;;7.11;60.94;100109.25;5180992;28;20767;-41
2022/01/05 05:22:50;;;;;;;25.52;7.10;;;;;;;7.03;60.98;100102.13;5198555;28;20485;-41
2022/01/05 05:25:23;;;;;;;20.83;5.32;;;;;;;7.06;60.93;100103.59;5188551;28;20435;-40
2022/01/05 05:27:56;;;;;;;24.30;6.13;;;;;;;7.16;60.87;100112.28;5187261;28;20911;-43
2022/01/05 05:30:28;;;;;;;17.75;5.68;;;;;;;7.17;60.84;100108.69;5197726;28;20440;-42
2022/01/05 05:33:00;;;;;;;22.70;5.00;;;;;;;7.17;60.95;100113.94;5195058;28;21290;-42
2022/01/05 05:35:33;;;;;;;20.85;6.32;;;;;;;7.10;60.83;100094.47;5193042;28;20423;-41
2022/01/05 05:38:06;;;;;;;26.63;5.68;;;;;;;7.20;60.81;100108.38;5188394;28;20403;-40
2022/01/05 05:40:40;;;;;;;21.67;5.45;;;;;;;7.12;60.95;100087.25;5189041;28;20431;-41
2022/01/05 05:43:13;;;;;;;17.17;4.57;;;;;;;7.20;60.84;100104.94;5182914;28;20546;-42
2022/01/05 05:45:45;;;;;;;20.13;5.82;;;;;;;7.22;61.00;100111.69;5188400;28;20427;-43
2022/01/05 05:48:17;;;;;;;16.00;4.72;;;;;;;7.23;60.89;100108.09;5203194;28;20423;-41
2022/01/05 05:50:50;;;;;;;18.10;4.93;;;;;;;7.25;60.88;100111.41;5217937;28;20407;-41
2022/01/05 05:53:23;;;;;;;18.30;5.15;;;;;;;7.26;60.86;100114.84;5196694;28;20478;-42
2022/01/05 05:55:56;;;;;;;22.15;6.30;;;;;;;7.25;60.79;100123.72;5194416;28;20420;-42
2022/01/05 05:58:29;;;;;;;20.42;5.65;;;;;;;7.26;60.87;100128.00;5186470;28;20415;-41
2022/01/05 06:01:01;;;;;;;34.95;7.22;;;;;;;7.24;60.80;100129.94;5196012;28;20419;-41
2022/01/05 06:03:33;;;;;;;28.13;7.75;;;;;;;7.22;60.91;100127.47;5199520;28;20528;-43
2022/01/05 06:06:06;;;;;;;31.13;6.70;;;;;;;7.23;60.77;100113.34;5185815;28;20417;-41
2022/01/05 06:08:39;;;;;;;28.92;7.00;;;;;;;7.23;60.83;100107.28;5189902;28;20417;-42
2022/01/05 06:11:13;;;;;;;29.48;7.38;;;;;;;7.22;60.87;100114.31;5188571;28;20409;-44
2022/01/05 06:13:45;;;;;;;32.17;7.87;;;;;;;7.21;60.82;100115.28;5190771;28;20409;-41
2022/01/05 06:16:18;;;;;;;27.17;7.75;;;;;;;7.16;61.04;100107.03;5186726;28;20486;-41
2022/01/05 06:18:50;;;;;;;38.30;7.30;;;;;;;7.20;61.01;100103.13;5188154;28;20425;-43
2022/01/05 06:21:22;;;;;;;25.63;6.13;;;;;;;7.19;60.95;100105.91;5189637;28;20413;-43
2022/01/05 06:23:54;;;;;;;32.60;6.47;;;;;;;7.22;61.10;100121.38;5183389;28;20439;-42
2022/01/05 06:26:28;;;;;;;34.47;6.82;;;;;;;7.24;61.08;100109.72;5211334;28;20429;-42
2022/01/05 06:29:01;;;;;;;24.13;6.53;;;;;;;7.26;61.28;100120.94;5195291;28;20512;-41
2022/01/05 06:31:33;;;;;;;26.35;6.78;;;;;;;7.25;61.19;100110.59;5190915;28;20405;-42
2022/01/05 06:34:05;;;;;;;29.50;6.85;;;;;;;7.29;61.20;100118.00;5182590;28;20411;-41
2022/01/05 06:36:38;;;;;;;37.97;7.47;;;;;;;7.34;61.18;100131.56;5187418;28;20422;-41
2022/01/05 06:39:11;;;;;;;34.08;7.43;;;;;;;7.28;61.26;100111.13;5202340;28;20436;-41
2022/01/05 06:41:45;;;;;;;32.17;7.28;;;;;;;7.35;61.37;100120.06;5192189;28;20477;-42
2022/01/05 06:44:20;;;;;;;31.55;6.63;;;;;;;7.42;61.47;100135.22;5188368;28;20434;-42
2022/01/05 06:46:52;;;;;;;28.35;7.53;;;;;;;7.43;61.36;100132.44;5185972;28;20438;-45
2022/01/05 06:49:25;;;;;;;17.25;5.55;;;;;;;7.45;61.50;100137.56;5197425;28;20425;-41
2022/01/05 06:51:57;;;;;;;33.38;7.88;;;;;;;7.46;61.44;100147.09;5190865;28;20669;-42
2022/01/05 06:54:30;;;;;;;32.97;7.43;;;;;;;7.48;61.49;100147.78;5196677;28;20417;-43
2022/01/05 06:57:04;;;;;;;30.55;7.75;;;;;;;7.48;61.41;100137.28;5200442;28;20413;-42
2022/01/05 06:59:37;;;;;;;23.67;6.35;;;;;;;7.48;61.41;100151.22;5199853;28;20768;-42
2022/01/05 07:02:10;;;;;;;27.38;7.57;;;;;;;7.45;61.55;100143.66;5190859;28;20738;-41
2022/01/05 07:04:42;;;;;;;26.52;7.88;;;;;;;7.44;61.63;100162.19;5194249;28;20409;-41
2022/01/05 07:07:14;;;;;;;31.08;7.45;;;;;;;7.43;61.59;100160.53;5188551;28;20423;-44
2022/01/05 07:09:47;;;;;;;20.27;6.23;;;;;;;7.41;61.55;100167.75;5184505;28;20415;-41
2022/01/05 07:12:20;;;;;;;33.70;8.35;;;;;;;7.39;61.64;100186.25;5194056;28;20437;-45
2022/01/05 07:14:53;;;;;;;30.13;5.93;;;;;;;7.38;61.61;100177.56;5194685;28;20418;-42
2022/01/05 07:17:25;;;;;;;27.27;7.10;;;;;;;7.36;61.70;100166.34;5197215;28;20417;-42
2022/01/05 07:19:57;;;;;;;38.73;8.20;;;;;;;7.02;61.62;100121.44;5206726;28;20429;-42
2022/01/05 07:22:30;;;;;;;26.83;6.13;;;;;;;7.33;61.80;100161.41;5193601;28;20517;-42
2022/01/05 07:25:02;;;;;;;32.67;6.25;;;;;;;7.32;61.64;100174.69;5191573;28;20775;-42
2022/01/05 07:27:36;;;;;;;26.15;6.18;;;;;;;7.29;61.87;100181.06;5198884;28;20555;-46
2022/01/05 07:30:10;;;;;;;30.02;6.38;;;;;;;7.31;61.89;100181.75;5200800;28;20475;-45
2022/01/05 07:32:42;;;;;;;30.30;6.25;;;;;;;7.29;61.97;100175.81;5199422;28;20436;-44
2022/01/05 07:35:14;;;;;;;22.70;6.05;;;;;;;7.29;61.83;100186.31;5195292;28;20515;-43
2022/01/05 07:37:47;;;;;;;23.50;6.03;;;;;;;7.32;61.81;100190.44;5190258;28;20419;-42
2022/01/05 07:40:19;;;;;;;24.65;6.78;;;;;;;7.26;61.96;100183.16;5187647;28;20421;-44
2022/01/05 07:42:53;;;;;;;39.73;7.23;;;;;;;7.36;62.01;100194.44;5198252;28;20421;-42
2022/01/05 07:45:26;;;;;;;33.45;6.60;;;;;;;7.36;61.98;100192.63;5194718;28;20931;-43
2022/01/05 07:47:58;;;;;;;31.70;7.30;;;;;;;7.37;61.96;100194.31;5196450;28;20409;-43
2022/01/05 07:50:30;;;;;;;29.85;7.68;;;;;;;7.37;62.16;100194.31;5185357;28;20407;-43
2022/01/05 07:53:04;;;;;;;33.10;7.93;;;;;;;7.39;62.03;100191.50;5192118;28;20421;-42
2022/01/05 07:55:37;;;;;;;36.55;7.28;;;;;;;7.45;61.99;100211.13;5197576;28;20421;-42
2022/01/05 07:58:11;;;;;;;36.97;8.40;;;;;;;7.48;62.14;100201.16;5187666;28;20419;-43
2022/01/05 08:00:43;;;;;;;34.90;9.07;;;;;;;7.51;62.08;100200.03;5188243;28;20417;-42
2022/01/05 08:03:15;;;;;;;35.22;7.10;;;;;;;7.56;62.11;100221.47;5184764;28;20431;-44
2022/01/05 08:05:50;;;;;;;28.17;6.40;;;;;;;7.57;62.04;100204.72;5197514;28;20869;-41
2022/01/05 08:08:22;;;;;;;29.65;8.07;;;;;;;7.58;62.22;100212.44;5188025;28;20859;-42
2022/01/05 08:10:55;;;;;;;43.13;10.70;;;;;;;7.62;62.20;100216.44;5198161;28;20985;-42
2022/01/05 08:13:29;;;;;;;40.15;8.40;;;;;;;7.67;62.23;100225.69;5182267;28;20803;-41
2022/01/05 08:16:01;;;;;;;35.17;7.72;;;;;;;7.69;62.12;100224.56;5190025;28;20909;-43
2022/01/05 08:18:34;;;;;;;31.77;7.57;;;;;;;7.69;62.14;100223.75;5185928;28;20414;-42
2022/01/05 08:21:06;;;;;;;29.52;7.68;;;;;;;7.68;62.20;100222.94;5190953;28;20431;-42
2022/01/05 08:23:39;;;;;;;45.00;8.25;;;;;;;7.67;62.16;100239.66;5181522;28;20438;-42
2022/01/05 08:26:12;;;;;;;36.28;8.70;;;;;;;7.67;62.27;100246.72;5189972;28;20411;-45
2022/01/05 08:28:45;;;;;;;37.42;8.70;;;;;;;7.64;62.37;100242.56;5192822;28;20431;-44
2022/01/05 08:31:18;;;;;;;31.13;8.35;;;;;;;7.66;62.19;100251.16;5195858;28;20440;-43
2022/01/05 08:33:50;;;;;;;36.80;9.05;;;;;;;7.60;62.29;100235.97;5196571;28;20421;-42
2022/01/05 08:36:23;;;;;;;38.78;7.25;;;;;;;7.64;62.37;100250.44;5188015;28;20419;-42
2022/01/05 08:38:55;;;;;;;38.25;8.75;;;;;;;7.61;62.35;100248.94;5199499;28;20417;-43
2022/01/05 08:41:27;;;;;;;30.90;7.03;;;;;;;7.63;62.50;100240.94;5192147;28;20429;-42
2022/01/05 08:44:01;;;;;;;38.67;7.20;;;;;;;7.63;62.48;100246.19;5188422;28;20423;-44
2022/01/05 08:46:33;;;;;;;45.10;8.90;;;;;;;7.65;62.50;100241.63;5186356;28;20489;-43
2022/01/05 08:49:06;;;;;;;30.33;7.65;;;;;;;7.69;62.39;100264.00;5192465;28;20790;-41
2022/01/05 08:51:38;;;;;;;35.22;7.43;;;;;;;7.69;62.37;100256.13;5187777;28;20409;-42
2022/01/05 08:54:11;;;;;;;31.38;7.25;;;;;;;7.71;62.60;100262.06;5188092;28;20412;-39
2022/01/05 08:56:43;;;;;;;32.38;7.53;;;;;;;7.76;62.53;100272.94;5195157;28;20422;-42
2022/01/05 08:59:17;;;;;;;31.08;8.20;;;;;;;7.73;62.43;100262.72;5193591;28;20427;-43
2022/01/05 09:01:50;;;;;;;34.30;7.20;;;;;;;7.84;62.46;100270.44;5182439;28;20534;-44
2022/01/05 09:04:22;;;;;;;37.92;8.13;;;;;;;7.83;62.54;100263.53;5181701;28;20927;-43
2022/01/05 09:06:55;;;;;;;33.88;7.78;;;;;;;7.95;62.36;100308.00;5193343;28;20425;-42
2022/01/05 09:09:27;;;;;;;37.40;7.23;;;;;;;7.98;62.50;100284.06;5185712;28;20451;-41
2022/01/05 09:12:00;;;;;;;30.70;7.30;;;;;;;8.01;62.39;100281.13;5195550;28;20902;-44
2022/01/05 09:14:34;;;;;;;38.53;7.85;;;;;;;8.05;62.38;100293.00;5188567;28;20417;-43
2022/01/05 09:17:06;;;;;;;24.93;6.47;;;;;;;7.95;62.54;100281.72;5189577;28;20417;-43
2022/01/05 09:19:39;;;;;;;23.73;5.95;;;;;;;8.04;62.52;100291.34;5190862;28;20941;-42
2022/01/05 09:22:11;;;;;;;27.88;6.68;;;;;;;8.03;62.54;100300.22;5186294;28;20772;-46
2022/01/05 09:24:44;;;;;;;29.00;6.43;;;;;;;8.02;62.57;100303.81;5199970;28;20516;-43
2022/01/05 09:27:16;;;;;;;26.73;6.57;;;;;;;8.02;62.47;100315.19;5191296;28;20425;-46
2022/01/05 09:29:50;;;;;;;36.38;8.15;;;;;;;7.99;62.64;100338.28;5187388;28;21855;-43
2022/01/05 09:32:23;;;;;;;36.15;8.25;;;;;;;8.02;62.54;100306.44;5193064;28;20516;-43
2022/01/05 09:34:55;;;;;;;29.58;6.32;;;;;;;8.06;62.55;100320.97;5192334;28;20786;-43
2022/01/05 09:37:32;;;;;;;32.57;6.70;;;;;;;8.04;62.38;100329.00;5192294;28;20597;-42
2022/01/05 09:42:57;;;;;;;38.67;7.60;;;;;;;8.13;62.44;100345.72;5184339;28;20419;-43
2022/01/05 09:45:35;;;;;;;32.45;6.70;;;;;;;8.15;62.45;100343.78;5186738;28;20441;-42
2022/01/05 09:48:40;;;;;;;36.03;8.60;;;;;;;8.17;62.39;100349.69;5198964;28;20453;-45
2022/01/05 09:51:17;;;;;;;26.13;6.47;;;;;;;8.21;62.36;100351.09;5187869;28;20419;-42
2022/01/05 09:53:52;;;;;;;34.72;8.25;;;;;;;8.24;62.37;100350.78;5189290;28;20409;-42
2022/01/05 09:56:24;;;;;;;32.13;6.75;;;;;;;8.24;63.01;100358.69;5191237;28;21010;-44
2022/01/05 09:59:00;;;;;;;31.17;8.03;;;;;;;8.26;62.43;100364.59;5184467;28;20427;-42
2022/01/05 10:01:37;;;;;;;34.92;7.32;;;;;;;8.31;62.45;100370.25;5185801;28;20425;-41
2022/01/05 10:04:10;;;;;;;34.85;7.57;;;;;;;8.28;62.40;100362.66;5184754;28;20830;-43
2022/01/05 10:06:43;;;;;;;39.08;7.88;;;;;;;8.40;62.28;100370.41;5184817;28;20496;-43
2022/01/05 10:09:15;;;;;;;27.97;6.80;;;;;;;8.46;62.26;100377.72;5196871;28;20498;-42
2022/01/05 10:11:48;;;;;;;34.30;8.07;;;;;;;8.47;62.31;100382.00;5193698;28;20423;-41
2022/01/05 10:14:20;;;;;;;27.58;7.13;;;;;;;8.40;62.40;100375.66;5181662;28;20757;-42
2022/01/05 10:17:06;;;;;;;40.13;7.50;;;;;;;8.38;62.59;100403.88;5199473;28;20417;-42
2022/01/05 10:19:40;;;;;;;48.35;8.63;;;;;;;8.32;62.35;100400.84;5183117;28;20577;-42
2022/01/05 10:22:33;;;;;;;39.20;7.00;;;;;;;8.25;62.45;100394.53;5194351;28;20411;-44
2022/01/05 10:25:15;;;;;;;40.05;8.13;;;;;;;8.25;62.33;100381.38;5196115;28;20444;-43
2022/01/05 10:27:57;;;;;;;33.25;8.27;;;;;;;8.41;62.25;100408.88;5199345;28;20417;-42
2022/01/05 10:30:37;;;;;;;37.25;10.07;;;;;;;8.49;62.20;100427.41;5190030;28;20854;-43
2022/01/05 10:33:10;;;;;;;40.78;9.57;;;;;;;8.53;62.22;100428.78;5195868;28;20425;-44
2022/01/05 10:35:56;;;;;;;45.73;9.27;;;;;;;8.58;62.24;100437.06;5188470;28;20426;-43
2022/01/05 10:38:30;;;;;;;36.80;9.18;;;;;;;8.61;62.06;100430.66;5183884;28;20437;-43
2022/01/05 10:41:16;;;;;;;43.00;8.52;;;;;;;8.61;62.13;100449.09;5193975;28;20772;-44
2022/01/05 10:44:20;;;;;;;37.72;8.88;;;;;;;8.57;62.42;100456.44;5176789;28;20419;-44
2022/01/05 10:46:55;;;;;;;40.70;10.05;;;;;;;8.53;62.35;100455.09;5117986;28;20535;-43
2022/01/05 10:49:32;;;;;;;48.55;8.65;;;;;;;8.51;62.41;100468.38;5181994;28;21007;-43
2022/01/05 10:52:23;;;;;;;37.25;7.13;;;;;;;8.50;62.42;100460.66;5188743;28;20421;-43
2022/01/05 10:55:09;;;;;;;34.43;8.63;;;;;;;8.48;62.39;100465.22;5187298;28;20431;-42
2022/01/05 10:58:23;;;;;;;37.08;8.90;;;;;;;8.49;62.74;100475.63;5185720;28;20431;-46
2022/01/05 11:00:56;;;;;;;40.25;8.57;;;;;;;8.32;62.37;100464.00;5189122;28;20416;-44
2022/01/05 11:03:32;;;;;;;43.58;8.80;;;;;;;8.54;62.29;100477.78;5207060;28;20421;-42
2022/01/05 11:06:09;;;;;;;30.63;7.30;;;;;;;8.57;62.33;100481.94;5213154;28;20447;-45
2022/01/05 11:08:52;;;;;;;37.50;8.43;;;;;;;8.63;62.30;100486.63;5164681;28;20399;-43
2022/01/05 11:11:37;;;;;;;38.35;8.18;;;;;;;8.68;62.31;100479.97;5182818;28;20430;-43
2022/01/05 11:14:11;;;;;;;31.42;8.05;;;;;;;8.58;62.31;100479.19;5193644;28;20430;-43
2022/01/05 11:16:46;;;;;;;38.22;8.90;;;;;;;8.70;62.33;100496.44;5165388;28;20441;-42
2022/01/05 11:19:21;;;;;;;34.58;8.77;;;;;;;8.75;62.26;100491.56;5187668;28;20428;-42
2022/01/05 11:22:08;;;;;;;31.30;7.68;;;;;;;8.80;62.29;100493.75;5191245;28;20432;-46
2022/01/05 11:24:42;;;;;;;32.55;8.18;;;;;;;8.86;62.30;100498.44;5191772;28;20459;-41
2022/01/05 11:27:18;;;;;;;32.08;8.25;;;;;;;8.90;62.21;100491.06;5196995;28;20926;-42
2022/01/05 11:29:50;;;;;;;35.17;7.70;;;;;;;8.86;62.33;100487.91;5197740;28;20410;-43
2022/01/05 11:32:27;;;;;;;27.67;7.25;;;;;;;8.96;62.30;100511.56;5191565;28;20931;-42
2022/01/05 11:35:00;;;;;;;32.42;7.25;;;;;;;9.01;62.32;100511.91;5197118;28;20405;-43
2022/01/05 11:37:34;;;;;;;35.35;7.82;;;;;;;9.09;62.20;100519.91;5188697;28;20689;-41
2022/01/05 11:40:08;;;;;;;30.93;6.13;;;;;;;9.16;62.04;100528.88;5194720;28;20490;-43
2022/01/05 11:42:42;;;;;;;33.55;8.95;;;;;;;9.18;62.12;100518.22;5194441;28;20419;-42
2022/01/05 11:45:30;;;;;;;25.30;5.55;;;;;;;9.26;62.15;100525.34;5197801;28;20415;-43
2022/01/05 11:48:18;;;;;;;34.58;6.90;;;;;;;9.23;62.21;100522.06;5188739;28;20520;-42
2022/01/05 11:50:53;;;;;;;41.92;7.72;;;;;;;9.25;62.21;100535.06;5195516;28;20966;-41
2022/01/05 11:53:42;;;;;;;25.80;6.93;;;;;;;9.29;62.24;100548.78;5199880;28;20796;-43
2022/01/05 11:56:17;;;;;;;31.13;7.38;;;;;;;9.36;62.09;100549.88;5188317;28;20413;-42
2022/01/05 11:58:53;;;;;;;35.50;8.35;;;;;;;9.30;61.95;100539.91;5195661;28;20419;-43